Latest Weather Observations for Brisbane

IDQ60801

Issued at 7:05 pm EST Thursday 23 October 2014 (issued every 30 minutes, with the page automatically refreshed every 10 minutes)

About weather observations | Map of weather stations | Latest weather observations for QLD | Other Formats
Station Details ID: 040913 Name: BRISBANE Lat: -27.48 Lon: 153.04 Height: 8.13 m
Data from the previous 72 hours. | See also: Recent months at Brisbane
Date/Time
EST
Temp
°C
App
Temp
°C
Dew
Point
Rel
Hum
%
Delta-T
°C
Wind Press
QNH
hPa
Press
MSL
hPa
Rain
since 9 am
mm
Dir
 
Spd
km/h
Gust
km/h
Spd
kts
Gust
kts
23/07:00pm 21.1 20.6 13.8 63 4.2 NE 9 17 5 9 1020.0 1020.0 0.0
23/06:30pm 21.1 21.0 13.8 63 4.2 NE 7 19 4 10 1019.7 1019.7 0.0
23/06:00pm 21.3 20.4 13.7 62 4.4 NNE 11 20 6 11 1019.1 1019.1 0.0
23/05:30pm 21.9 21.3 13.5 59 4.8 NNE 9 22 5 12 1018.8 1018.8 0.0
23/05:00pm 22.7 21.7 13.5 56 5.3 NE 11 22 6 12 1018.2 1018.2 0.0
23/04:30pm 23.6 22.3 13.8 54 5.7 NE 13 24 7 13 1017.6 1017.6 0.0
23/04:00pm 24.3 23.3 13.5 51 6.3 NE 11 20 6 11 1017.5 1017.5 0.0
23/03:30pm 24.4 23.6 13.9 52 6.2 NE 11 20 6 11 1017.2 1017.2 0.0
23/03:00pm 25.7 25.1 13.5 46 7.1 NE 9 17 5 9 1017.3 1017.3 0.0
23/02:30pm 25.4 24.6 12.9 45 7.3 NE 9 17 5 9 1017.4 1017.4 0.0
23/02:00pm 25.2 23.9 12.4 45 7.3 NE 11 19 6 10 1017.9 1017.9 0.0
23/01:30pm 25.8 24.4 12.3 43 7.8 NE 11 19 6 10 1018.4 1018.4 0.0
23/01:00pm 26.2 25.2 12.3 42 8.0 NE 9 19 5 10 1018.7 1018.7 0.0
23/12:30pm 26.2 25.5 11.9 41 8.2 NNE 7 17 4 9 1019.2 1019.2 0.0
23/12:00pm 26.7 25.7 12.4 41 8.3 NNE 9 19 5 10 1019.7 1019.7 0.0
23/11:30am 25.4 24.7 10.1 38 8.5 ENE 4 9 2 5 1020.3 1020.3 0.0
23/11:00am 25.4 24.8 11.6 42 7.8 ENE 6 9 3 5 1020.9 1020.9 0.0
23/10:30am 24.1 23.3 11.1 44 7.3 N 6 11 3 6 1021.4 1021.4 0.0
23/10:00am 23.6 22.7 11.3 46 6.9 ENE 7 13 4 7 1021.9 1021.9 0.0
23/09:30am 22.5 21.7 10.9 48 6.4 WNW 6 9 3 5 1022.4 1022.4 0.0
23/09:00am 22.2 21.9 11.3 50 6.0 NW 4 7 2 4 1022.6 1022.6 0.0
23/08:30am 21.6 20.8 11.0 51 5.8 WSW 6 11 3 6 1022.8 1022.8 0.0
23/08:00am 20.3 20.2 12.0 59 4.6 W 4 9 2 5 1022.9 1022.9 0.0
23/07:30am 19.2 19.0 11.7 62 4.1 SW 4 7 2 4 1022.9 1022.9 0.0
23/07:00am 17.7 17.1 11.7 68 3.3 SW 6 7 3 4 1022.8 1022.8 0.0
23/06:30am 16.5 16.2 11.6 73 2.7 WSW 4 7 2 4 1022.5 1022.5 0.0
23/06:00am 15.1 15.4 12.1 82 1.6 SW 2 6 1 3 1022.4 1022.4 0.0
23/05:30am 13.1 13.6 11.5 90 0.8 CALM 0 2 0 1 1022.1 1022.1 0.0
23/05:00am 13.0 13.3 10.9 87 1.1 CALM 0 0 0 0 1022.0 1022.0 0.0
23/04:30am 13.4 13.5 11.5 88 1.0 SW 2 6 1 3 1021.9 1021.9 0.0
23/04:00am 13.7 14.1 11.4 86 1.2 CALM 0 2 0 1 1021.9 1021.9 0.0
23/03:30am 14.2 14.4 11.9 86 1.2 SW 2 6 1 3 1021.6 1021.6 0.0
23/03:00am 14.9 15.2 12.2 84 1.5 SW 2 6 1 3 1021.7 1021.7 0.0
23/02:30am 14.9 15.4 12.8 87 1.2 WSW 2 6 1 3 1021.8 1021.8 0.0
23/02:00am 14.6 14.7 12.8 89 1.0 SW 4 6 2 3 1021.7 1021.7 0.0
23/01:30am 13.7 14.3 11.8 88 1.0 CALM 0 0 0 0 1021.9 1021.9 0.0
23/01:00am 13.8 14.3 11.5 86 1.2 CALM 0 0 0 0 1022.3 1022.3 0.0
23/12:30am 14.3 14.9 12.0 86 1.2 CALM 0 0 0 0 1022.6 1022.6 0.0
23/12:00am 14.7 15.3 12.0 84 1.5 E 0 0 0 0 1022.8 1022.8 0.0
 
Date/Time
EST
Temp
°C
App
Temp
°C
Dew
Point
Rel
Hum
%
Delta-T
°C
Wind Press
QNH
hPa
Press
MSL
hPa
Rain
since 9 am
mm
Dir
 
Spd
km/h
Gust
km/h
Spd
kts
Gust
kts
22/11:30pm 14.7 15.2 11.7 82 1.6 CALM 0 0 0 0 1023.0 1023.0 0.0
22/11:00pm 15.2 15.8 12.0 81 1.7 CALM 0 0 0 0 1023.3 1023.3 0.0
22/10:30pm 15.2 15.7 11.6 79 1.9 CALM 0 0 0 0 1023.5 1023.5 0.0
22/10:00pm 15.9 16.6 12.1 78 2.1 CALM 0 0 0 0 1023.5 1023.5 0.0
22/09:30pm 16.0 16.4 11.4 74 2.5 CALM 0 0 0 0 1023.4 1023.4 0.0
22/09:00pm 16.4 16.4 11.3 72 2.7 E 2 4 1 2 1023.5 1023.5 0.0
22/08:30pm 17.4 17.6 11.7 69 3.1 E 2 4 1 2 1023.5 1023.5 0.0
22/08:00pm 17.8 17.9 11.4 66 3.5 ENE 2 4 1 2 1023.5 1023.5 0.0
22/07:30pm 19.0 18.5 12.0 64 3.9 ENE 6 7 3 4 1023.2 1023.2 0.0
22/07:00pm 19.3 18.7 11.8 62 4.1 E 6 9 3 5 1023.1 1023.1 0.0
22/06:30pm 19.7 19.1 11.7 60 4.4 E 6 11 3 6 1023.1 1023.1 0.0
22/06:00pm 20.1 18.5 11.6 58 4.7 E 11 20 6 11 1023.0 1023.0 0.0
22/05:30pm 20.8 19.3 12.0 57 4.9 E 11 26 6 14 1022.8 1022.8 0.0
22/05:00pm 21.1 19.3 12.0 56 5.1 E 13 20 7 11 1022.4 1022.4 0.0
22/04:30pm 21.5 19.8 12.4 56 5.1 E 13 22 7 12 1022.3 1022.3 0.0
22/04:00pm 23.2 21.0 12.2 50 6.2 E 15 26 8 14 1022.1 1022.1 0.0
22/03:30pm 23.7 20.9 11.4 46 6.9 E 17 28 9 15 1022.0 1022.0 0.0
22/03:00pm 24.0 21.5 12.3 48 6.7 E 17 26 9 14 1022.0 1022.0 0.0
22/02:30pm 24.2 22.1 11.2 44 7.3 ESE 13 24 7 13 1022.1 1022.1 0.0
22/02:00pm 23.9 21.7 10.9 44 7.2 E 13 24 7 13 1022.3 1022.3 0.0
22/01:30pm 24.4 22.2 10.7 42 7.6 ESE 13 26 7 14 1022.6 1022.6 0.0
22/01:00pm 24.1 22.1 11.4 45 7.1 ESE 13 26 7 14 1022.9 1022.9 0.0
22/12:30pm 24.3 22.2 11.3 44 7.3 ESE 13 24 7 13 1023.4 1023.4 0.0
22/12:00pm 24.1 21.8 10.4 42 7.5 ESE 13 26 7 14 1023.8 1023.8 0.0
22/11:30am 24.4 22.5 9.2 38 8.2 SSE 9 19 5 10 1024.1 1024.1 0.0
22/11:00am 23.6 21.9 9.9 42 7.4 SE 9 17 5 9 1024.6 1024.6 0.0
22/10:30am 22.8 21.0 10.9 47 6.6 ESE 11 20 6 11 1024.9 1024.9 0.0
22/10:00am 23.5 22.2 11.2 46 6.8 SE 9 19 5 10 1025.3 1025.3 0.0
22/09:30am 22.5 20.2 10.6 47 6.5 SE 13 20 7 11 1025.7 1025.7 0.0
22/09:00am 22.2 20.7 10.7 48 6.3 SSE 9 24 5 13 1025.6 1025.6 0.0
22/08:30am 22.1 20.5 11.5 51 5.9 SE 11 22 6 12 1025.7 1025.7 0.0
22/08:00am 20.7 20.0 12.1 58 4.8 S 7 19 4 10 1025.7 1025.7 0.0
22/07:30am 19.3 18.7 12.3 64 3.9 SSW 7 13 4 7 1025.7 1025.7 0.0
22/07:00am 18.9 18.3 12.2 65 3.7 SSW 7 15 4 8 1025.5 1025.5 0.0
22/06:30am 17.9 17.2 12.1 69 3.2 SW 7 15 4 8 1025.3 1025.3 0.0
22/06:00am 17.3 17.2 12.2 72 2.8 SW 4 7 2 4 1025.2 1025.2 0.0
22/05:30am 16.7 16.1 11.6 72 2.8 SSW 6 11 3 6 1024.9 1024.9 0.0
22/05:00am 17.0 16.4 11.7 71 2.9 SW 6 9 3 5 1024.7 1024.7 0.0
22/04:30am 16.9 16.3 11.8 72 2.8 SW 6 13 3 7 1024.6 1024.6 0.0
22/04:00am 16.8 16.9 11.5 71 2.9 SSW 2 7 1 4 1024.5 1024.5 0.0
22/03:30am 17.3 16.7 11.8 70 3.0 S 6 9 3 5 1024.6 1024.6 0.0
22/03:00am 17.1 16.5 11.6 70 3.0 SSW 6 11 3 6 1024.8 1024.8 0.0
22/02:30am 17.1 17.3 12.0 72 2.8 SW 2 7 1 4 1025.1 1025.1 0.0
22/02:00am 17.1 16.9 11.8 71 2.9 SW 4 9 2 5 1025.3 1025.3 0.0
22/01:30am 17.0 16.5 11.9 72 2.8 SW 6 9 3 5 1025.5 1025.5 0.0
22/01:00am 17.4 17.3 12.1 71 2.9 SW 4 11 2 6 1025.8 1025.8 0.0
22/12:30am 17.8 18.3 12.7 72 2.8 S 2 6 1 3 1026.4 1026.4 0.0
22/12:00am 17.9 17.6 12.8 72 2.8 SSE 6 9 3 5 1026.8 1026.8 0.0
 
Date/Time
EST
Temp
°C
App
Temp
°C
Dew
Point
Rel
Hum
%
Delta-T
°C
Wind Press
QNH
hPa
Press
MSL
hPa
Rain
since 9 am
mm
Dir
 
Spd
km/h
Gust
km/h
Spd
kts
Gust
kts
21/11:30pm 17.9 18.0 12.8 72 2.8 SSE 4 7 2 4 1027.2 1027.2 0.0
21/11:00pm 18.1 17.7 13.0 72 2.8 SSE 7 11 4 6 1027.5 1027.5 0.0
21/10:30pm 18.9 18.4 12.6 67 3.5 SE 7 15 4 8 1027.8 1027.8 0.0
21/10:00pm 18.4 18.1 12.6 69 3.2 SE 6 13 3 7 1027.7 1027.7 0.0
21/09:30pm 18.7 18.2 12.7 68 3.4 SE 7 15 4 8 1027.8 1027.8 0.0
21/09:00pm 18.9 17.6 12.4 66 3.6 SE 11 24 6 13 1027.6 1027.6 0.0
21/08:30pm 19.3 17.9 12.3 64 3.9 SSE 11 20 6 11 1027.4 1027.4 0.0
21/08:00pm 19.9 18.2 12.4 62 4.2 SE 13 24 7 13 1027.1 1027.1 0.0
21/07:30pm 20.1 19.1 12.3 61 4.4 SE 9 17 5 9 1026.7 1026.7 0.0
21/07:00pm 20.2 19.2 12.4 61 4.4 SE 9 20 5 11 1026.5 1026.5 0.0
21/06:30pm 20.6 19.4 12.8 61 4.4 SE 11 20 6 11 1026.2 1026.2 0.0
21/06:00pm 20.8 19.6 12.8 60 4.5 ESE 11 22 6 12 1025.8 1025.8 0.0
21/05:30pm 21.3 19.8 13.2 60 4.6 ESE 13 30 7 16 1025.6 1025.6 0.0
21/05:00pm 21.8 19.6 13.4 59 4.8 ESE 17 30 9 16 1025.3 1025.3 0.0
21/04:30pm 22.6 21.3 13.7 57 5.2 SE 13 24 7 13 1024.9 1024.9 0.0
21/04:00pm 22.9 20.4 13.4 55 5.5 ESE 19 30 10 16 1024.7 1024.7 0.0
21/03:30pm 23.5 21.8 13.7 54 5.7 ESE 15 32 8 17 1024.4 1024.4 0.0
21/03:00pm 23.7 21.4 14.1 55 5.6 ESE 19 32 10 17 1024.4 1024.4 0.0
21/02:30pm 24.4 22.0 13.9 52 6.2 ESE 19 35 10 19 1024.4 1024.4 0.0
21/02:00pm 25.4 24.1 13.6 48 6.9 SE 13 28 7 15 1024.4 1024.4 0.0
21/01:30pm 25.5 24.1 13.4 47 7.1 ESE 13 22 7 12 1024.7 1024.7 0.0
21/01:00pm 25.4 23.3 12.3 44 7.5 ESE 15 26 8 14 1025.0 1025.0 0.0
21/12:30pm 25.4 23.1 12.9 45 7.3 ESE 17 26 9 14 1025.3 1025.3 0.0
21/12:00pm 25.3 23.4 12.9 46 7.2 SE 15 26 8 14 1025.6 1025.6 0.0
21/11:30am 25.9 24.3 12.7 44 7.7 SSE 13 28 7 15 1026.1 1026.1 0.0
21/11:00am 26.3 24.4 13.1 44 7.7 SE 15 28 8 15 1026.3 1026.3 0.0
21/10:30am 25.9 23.7 13.4 46 7.3 SE 17 28 9 15 1026.5 1026.5 0.0
21/10:00am 24.9 22.8 12.5 46 7.1 SE 15 33 8 18 1026.7 1026.7 0.0
21/09:30am 23.7 21.5 12.0 48 6.6 SE 15 32 8 17 1026.9 1026.9 0.0
21/09:00am 23.2 20.9 13.1 53 5.8 SSE 17 26 9 14 1027.1 1027.1 0.0
21/08:30am 22.4 20.6 13.2 56 5.3 SSE 15 28 8 15 1027.3 1027.3 0.0
21/08:00am 21.9 21.2 14.3 62 4.4 SE 11 20 6 11 1027.1 1027.1 0.0
21/07:30am 21.1 20.3 15.0 68 3.6 SE 13 20 7 11 1026.9 1026.9 0.0
21/07:00am 20.3 20.9 15.9 76 2.6 SSE 7 13 4 7 1026.6 1026.6 0.0
21/06:30am 19.8 20.6 15.9 78 2.3 SE 6 9 3 5 1026.3 1026.3 0.0
21/06:00am 18.8 19.9 15.7 82 1.8 SE 4 9 2 5 1026.0 1026.0 0.0
21/05:30am 18.4 19.3 15.1 81 1.9 SE 4 9 2 5 1025.8 1025.8 0.0
21/05:00am 18.7 19.4 14.6 77 2.4 ESE 4 7 2 4 1025.7 1025.7 0.0
21/04:30am 18.5 19.5 14.4 77 2.4 SW 2 4 1 2 1025.2 1025.2 0.0
21/04:00am 18.2 19.2 14.3 78 2.2 SW 2 7 1 4 1024.9 1024.9 0.0
21/03:30am 18.0 19.6 14.9 82 1.8 CALM 0 6 0 3 1024.9 1024.9 0.0
21/03:00am 18.1 19.9 15.4 84 1.6 CALM 0 2 0 1 1024.9 1024.9 0.0
21/02:30am 16.8 18.2 14.3 85 1.4 CALM 0 0 0 0 1025.2 1025.2 0.0
21/02:00am 16.9 18.0 13.6 81 1.9 CALM 0 0 0 0 1025.3 1025.3 0.0
21/01:30am 17.5 18.7 13.8 79 2.1 CALM 0 0 0 0 1025.5 1025.5 0.0
21/01:00am 18.2 19.1 14.1 77 2.3 SE 2 6 1 3 1025.8 1025.8 0.0
21/12:30am 18.3 18.7 13.8 75 2.6 SE 4 6 2 3 1026.1 1026.1 0.0
21/12:00am 18.6 19.0 13.7 73 2.8 SE 4 7 2 4 1026.4 1026.4 0.0
 
Date/Time
EST
Temp
°C
App
Temp
°C
Dew
Point
Rel
Hum
%
Delta-T
°C
Wind Press
QNH
hPa
Press
MSL
hPa
Rain
since 9 am
mm
Dir
 
Spd
km/h
Gust
km/h
Spd
kts
Gust
kts
20/11:30pm 17.8 18.3 12.9 73 2.7 SSE 2 6 1 3 1026.6 1026.6 0.0
20/11:00pm 18.1 18.7 13.0 72 2.8 SSE 2 6 1 3 1026.8 1026.8 0.0
20/10:30pm 18.5 19.3 12.7 69 3.2 CALM 0 4 0 2 1027.0 1027.0 0.0
20/10:00pm 19.1 19.7 13.1 68 3.4 SSE 2 4 1 2 1027.0 1027.0 0.0
20/09:30pm 19.5 19.4 13.4 68 3.5 SE 6 9 3 5 1027.0 1027.0 0.0
20/09:00pm 19.2 19.7 12.9 67 3.5 SE 2 4 1 2 1026.8 1026.8 0.0
20/08:30pm 19.5 20.1 13.0 66 3.7 ESE 2 7 1 4 1026.5 1026.5 0.0
20/08:00pm 20.0 20.2 13.0 64 3.9 ESE 4 7 2 4 1026.1 1026.1 0.0
20/07:30pm 20.1 20.3 13.1 64 4.0 E 4 7 2 4 1025.6 1025.6 0.0

Other Formats:

Comma delimited format used in spreadsheet applications
http://www.bom.gov.au/fwo/IDQ60801/IDQ60801.94576.axf

JavaScript Object Notation format (JSON) in row-major order
http://www.bom.gov.au/fwo/IDQ60801/IDQ60801.94576.json